sensor_id;sensor_type;location;lat;lon;timestamp;P1;durP1;ratioP1;P2;durP2;ratioP2
36651;SDS011;53334;51.976;20.144;2023-04-23T00:00:21;15.68;;;10.98;;
36651;SDS011;53334;51.976;20.144;2023-04-23T00:02:54;15.60;;;11.65;;
36651;SDS011;53334;51.976;20.144;2023-04-23T00:05:30;16.88;;;11.68;;
36651;SDS011;53334;51.976;20.144;2023-04-23T00:08:08;14.98;;;10.88;;
36651;SDS011;53334;51.976;20.144;2023-04-23T00:10:42;11.88;;;9.73;;
36651;SDS011;53334;51.976;20.144;2023-04-23T00:13:16;14.32;;;11.30;;
36651;SDS011;53334;51.976;20.144;2023-04-23T00:15:49;19.75;;;12.02;;
36651;SDS011;53334;51.976;20.144;2023-04-23T00:18:22;14.48;;;10.70;;
36651;SDS011;53334;51.976;20.144;2023-04-23T00:20:56;17.55;;;11.73;;
36651;SDS011;53334;51.976;20.144;2023-04-23T00:23:31;21.30;;;11.25;;
36651;SDS011;53334;51.976;20.144;2023-04-23T00:26:04;20.05;;;10.15;;
36651;SDS011;53334;51.976;20.144;2023-04-23T00:28:37;14.70;;;10.00;;
36651;SDS011;53334;51.976;20.144;2023-04-23T00:31:11;12.55;;;10.00;;
36651;SDS011;53334;51.976;20.144;2023-04-23T00:33:44;12.55;;;9.63;;
36651;SDS011;53334;51.976;20.144;2023-04-23T00:36:17;14.25;;;10.38;;
36651;SDS011;53334;51.976;20.144;2023-04-23T00:38:52;12.40;;;9.95;;
36651;SDS011;53334;51.976;20.144;2023-04-23T00:41:25;15.35;;;11.00;;
36651;SDS011;53334;51.976;20.144;2023-04-23T00:43:59;13.32;;;9.73;;
36651;SDS011;53334;51.976;20.144;2023-04-23T00:49:06;14.15;;;10.43;;
36651;SDS011;53334;51.976;20.144;2023-04-23T00:54:15;12.82;;;9.98;;
36651;SDS011;53334;51.976;20.144;2023-04-23T00:56:48;15.93;;;10.07;;
36651;SDS011;53334;51.976;20.144;2023-04-23T00:59:21;14.75;;;9.93;;
36651;SDS011;53334;51.976;20.144;2023-04-23T01:01:55;12.90;;;9.30;;
36651;SDS011;53334;51.976;20.144;2023-04-23T01:04:29;14.20;;;10.00;;
36651;SDS011;53334;51.976;20.144;2023-04-23T01:07:03;12.85;;;9.50;;
36651;SDS011;53334;51.976;20.144;2023-04-23T01:09:39;12.10;;;9.23;;
36651;SDS011;53334;51.976;20.144;2023-04-23T01:12:12;14.57;;;9.13;;
36651;SDS011;53334;51.976;20.144;2023-04-23T01:14:48;10.82;;;8.65;;
36651;SDS011;53334;51.976;20.144;2023-04-23T01:17:21;12.68;;;9.18;;
36651;SDS011;53334;51.976;20.144;2023-04-23T01:19:56;12.77;;;9.23;;
36651;SDS011;53334;51.976;20.144;2023-04-23T01:22:31;11.15;;;8.98;;
36651;SDS011;53334;51.976;20.144;2023-04-23T01:25:05;11.88;;;9.15;;
36651;SDS011;53334;51.976;20.144;2023-04-23T01:27:40;12.52;;;9.30;;
36651;SDS011;53334;51.976;20.144;2023-04-23T01:30:14;11.65;;;8.57;;
36651;SDS011;53334;51.976;20.144;2023-04-23T01:32:48;12.38;;;9.25;;
36651;SDS011;53334;51.976;20.144;2023-04-23T01:35:23;13.15;;;9.48;;
36651;SDS011;53334;51.976;20.144;2023-04-23T01:37:58;9.52;;;7.60;;
36651;SDS011;53334;51.976;20.144;2023-04-23T01:40:34;10.77;;;8.65;;
36651;SDS011;53334;51.976;20.144;2023-04-23T01:43:08;10.23;;;7.70;;
36651;SDS011;53334;51.976;20.144;2023-04-23T01:45:41;10.35;;;8.10;;
36651;SDS011;53334;51.976;20.144;2023-04-23T01:48:15;10.77;;;8.93;;
36651;SDS011;53334;51.976;20.144;2023-04-23T01:53:23;12.90;;;8.33;;
36651;SDS011;53334;51.976;20.144;2023-04-23T01:55:57;10.80;;;8.50;;
36651;SDS011;53334;51.976;20.144;2023-04-23T01:58:31;12.70;;;9.13;;
36651;SDS011;53334;51.976;20.144;2023-04-23T02:01:05;10.90;;;8.10;;
36651;SDS011;53334;51.976;20.144;2023-04-23T02:03:38;11.65;;;8.52;;
36651;SDS011;53334;51.976;20.144;2023-04-23T02:08:46;11.18;;;7.68;;
36651;SDS011;53334;51.976;20.144;2023-04-23T02:11:20;14.02;;;8.32;;
36651;SDS011;53334;51.976;20.144;2023-04-23T02:13:53;11.93;;;8.40;;
36651;SDS011;53334;51.976;20.144;2023-04-23T02:16:26;11.48;;;9.02;;
36651;SDS011;53334;51.976;20.144;2023-04-23T02:18:59;9.73;;;7.82;;
36651;SDS011;53334;51.976;20.144;2023-04-23T02:21:33;11.23;;;7.78;;
36651;SDS011;53334;51.976;20.144;2023-04-23T02:24:08;10.65;;;7.60;;
36651;SDS011;53334;51.976;20.144;2023-04-23T02:26:41;10.35;;;8.02;;
36651;SDS011;53334;51.976;20.144;2023-04-23T02:29:14;11.73;;;7.97;;
36651;SDS011;53334;51.976;20.144;2023-04-23T02:31:48;14.13;;;8.48;;
36651;SDS011;53334;51.976;20.144;2023-04-23T02:34:21;9.05;;;7.40;;
36651;SDS011;53334;51.976;20.144;2023-04-23T02:36:54;10.60;;;8.18;;
36651;SDS011;53334;51.976;20.144;2023-04-23T02:39:29;12.23;;;8.85;;
36651;SDS011;53334;51.976;20.144;2023-04-23T02:42:03;8.73;;;7.28;;
36651;SDS011;53334;51.976;20.144;2023-04-23T02:44:36;8.52;;;7.30;;
36651;SDS011;53334;51.976;20.144;2023-04-23T02:47:10;10.35;;;8.35;;
36651;SDS011;53334;51.976;20.144;2023-04-23T02:49:43;9.35;;;7.50;;
36651;SDS011;53334;51.976;20.144;2023-04-23T02:52:16;9.25;;;7.50;;
36651;SDS011;53334;51.976;20.144;2023-04-23T02:54:51;11.73;;;7.45;;
36651;SDS011;53334;51.976;20.144;2023-04-23T02:57:24;12.65;;;8.00;;
36651;SDS011;53334;51.976;20.144;2023-04-23T02:59:57;10.68;;;7.60;;
36651;SDS011;53334;51.976;20.144;2023-04-23T03:02:38;9.93;;;7.45;;
36651;SDS011;53334;51.976;20.144;2023-04-23T03:05:11;9.77;;;6.95;;
36651;SDS011;53334;51.976;20.144;2023-04-23T03:10:20;10.45;;;7.43;;
36651;SDS011;53334;51.976;20.144;2023-04-23T03:12:53;9.32;;;7.70;;
36651;SDS011;53334;51.976;20.144;2023-04-23T03:18:00;9.18;;;7.45;;
36651;SDS011;53334;51.976;20.144;2023-04-23T03:20:35;9.60;;;7.47;;
36651;SDS011;53334;51.976;20.144;2023-04-23T03:23:08;8.75;;;7.78;;
36651;SDS011;53334;51.976;20.144;2023-04-23T03:25:43;8.52;;;6.88;;
36651;SDS011;53334;51.976;20.144;2023-04-23T03:28:16;10.98;;;7.68;;
36651;SDS011;53334;51.976;20.144;2023-04-23T03:30:49;9.55;;;7.30;;
36651;SDS011;53334;51.976;20.144;2023-04-23T03:33:23;8.20;;;7.03;;
36651;SDS011;53334;51.976;20.144;2023-04-23T03:35:56;8.57;;;7.10;;
36651;SDS011;53334;51.976;20.144;2023-04-23T03:38:33;9.93;;;7.97;;
36651;SDS011;53334;51.976;20.144;2023-04-23T03:41:09;10.02;;;6.88;;
36651;SDS011;53334;51.976;20.144;2023-04-23T03:43:43;9.15;;;7.65;;
36651;SDS011;53334;51.976;20.144;2023-04-23T03:46:22;9.23;;;7.35;;
36651;SDS011;53334;51.976;20.144;2023-04-23T03:48:56;9.10;;;7.35;;
36651;SDS011;53334;51.976;20.144;2023-04-23T03:51:31;10.07;;;7.20;;
36651;SDS011;53334;51.976;20.144;2023-04-23T03:54:04;8.07;;;7.18;;
36651;SDS011;53334;51.976;20.144;2023-04-23T03:56:45;9.85;;;6.85;;
36651;SDS011;53334;51.976;20.144;2023-04-23T03:59:25;8.93;;;6.78;;
36651;SDS011;53334;51.976;20.144;2023-04-23T04:02:02;8.65;;;5.95;;
36651;SDS011;53334;51.976;20.144;2023-04-23T04:04:35;7.43;;;6.45;;
36651;SDS011;53334;51.976;20.144;2023-04-23T04:09:42;9.02;;;6.93;;
36651;SDS011;53334;51.976;20.144;2023-04-23T04:12:18;9.57;;;6.20;;
36651;SDS011;53334;51.976;20.144;2023-04-23T04:14:51;8.95;;;7.35;;
36651;SDS011;53334;51.976;20.144;2023-04-23T04:17:25;8.07;;;6.63;;
36651;SDS011;53334;51.976;20.144;2023-04-23T04:19:58;8.70;;;6.35;;
36651;SDS011;53334;51.976;20.144;2023-04-23T04:22:31;8.57;;;7.45;;
36651;SDS011;53334;51.976;20.144;2023-04-23T04:25:05;8.55;;;7.07;;
36651;SDS011;53334;51.976;20.144;2023-04-23T04:27:40;8.77;;;6.68;;
36651;SDS011;53334;51.976;20.144;2023-04-23T04:30:14;10.40;;;7.32;;
36651;SDS011;53334;51.976;20.144;2023-04-23T04:32:47;8.77;;;6.50;;
36651;SDS011;53334;51.976;20.144;2023-04-23T04:35:21;7.85;;;6.53;;
36651;SDS011;53334;51.976;20.144;2023-04-23T04:37:54;7.72;;;6.40;;
36651;SDS011;53334;51.976;20.144;2023-04-23T04:40:29;9.70;;;7.00;;
36651;SDS011;53334;51.976;20.144;2023-04-23T04:43:03;8.88;;;7.10;;
36651;SDS011;53334;51.976;20.144;2023-04-23T04:45:37;8.82;;;6.53;;
36651;SDS011;53334;51.976;20.144;2023-04-23T04:48:10;9.55;;;6.88;;
36651;SDS011;53334;51.976;20.144;2023-04-23T04:50:43;8.27;;;6.78;;
36651;SDS011;53334;51.976;20.144;2023-04-23T04:53:17;7.93;;;6.80;;
36651;SDS011;53334;51.976;20.144;2023-04-23T04:55:50;7.38;;;6.55;;
36651;SDS011;53334;51.976;20.144;2023-04-23T04:58:25;7.38;;;6.15;;
36651;SDS011;53334;51.976;20.144;2023-04-23T05:00:58;6.90;;;6.18;;
36651;SDS011;53334;51.976;20.144;2023-04-23T05:03:32;10.77;;;6.90;;
36651;SDS011;53334;51.976;20.144;2023-04-23T05:06:05;13.98;;;6.55;;
36651;SDS011;53334;51.976;20.144;2023-04-23T05:08:38;8.75;;;7.03;;
36651;SDS011;53334;51.976;20.144;2023-04-23T05:11:13;8.80;;;6.90;;
36651;SDS011;53334;51.976;20.144;2023-04-23T05:13:47;8.98;;;6.90;;
36651;SDS011;53334;51.976;20.144;2023-04-23T05:16:21;8.25;;;6.50;;
36651;SDS011;53334;51.976;20.144;2023-04-23T05:18:54;10.00;;;7.65;;
36651;SDS011;53334;51.976;20.144;2023-04-23T05:21:28;10.38;;;7.40;;
36651;SDS011;53334;51.976;20.144;2023-04-23T05:24:02;9.77;;;7.05;;
36651;SDS011;53334;51.976;20.144;2023-04-23T05:26:35;7.85;;;6.53;;
36651;SDS011;53334;51.976;20.144;2023-04-23T05:29:10;12.60;;;6.95;;
36651;SDS011;53334;51.976;20.144;2023-04-23T05:31:48;9.60;;;6.72;;
36651;SDS011;53334;51.976;20.144;2023-04-23T05:34:22;7.93;;;6.22;;
36651;SDS011;53334;51.976;20.144;2023-04-23T05:36:55;8.38;;;7.38;;
36651;SDS011;53334;51.976;20.144;2023-04-23T05:39:29;9.25;;;7.05;;
36651;SDS011;53334;51.976;20.144;2023-04-23T05:42:02;7.88;;;6.97;;
36651;SDS011;53334;51.976;20.144;2023-04-23T05:44:37;7.85;;;6.90;;
36651;SDS011;53334;51.976;20.144;2023-04-23T05:47:12;7.10;;;6.30;;
36651;SDS011;53334;51.976;20.144;2023-04-23T05:49:46;6.70;;;6.00;;
36651;SDS011;53334;51.976;20.144;2023-04-23T05:52:19;7.80;;;6.63;;
36651;SDS011;53334;51.976;20.144;2023-04-23T05:54:52;8.55;;;6.55;;
36651;SDS011;53334;51.976;20.144;2023-04-23T05:57:25;8.13;;;6.38;;
36651;SDS011;53334;51.976;20.144;2023-04-23T06:00:00;8.85;;;7.07;;
36651;SDS011;53334;51.976;20.144;2023-04-23T06:02:42;10.07;;;7.63;;
36651;SDS011;53334;51.976;20.144;2023-04-23T06:05:16;6.97;;;5.57;;
36651;SDS011;53334;51.976;20.144;2023-04-23T06:10:23;9.18;;;7.30;;
36651;SDS011;53334;51.976;20.144;2023-04-23T06:12:56;9.48;;;6.55;;
36651;SDS011;53334;51.976;20.144;2023-04-23T06:15:31;8.25;;;6.65;;
36651;SDS011;53334;51.976;20.144;2023-04-23T06:18:04;9.55;;;6.80;;
36651;SDS011;53334;51.976;20.144;2023-04-23T06:20:37;8.40;;;6.20;;
36651;SDS011;53334;51.976;20.144;2023-04-23T06:23:11;7.63;;;6.45;;
36651;SDS011;53334;51.976;20.144;2023-04-23T06:25:44;8.05;;;6.43;;
36651;SDS011;53334;51.976;20.144;2023-04-23T06:28:17;7.07;;;5.88;;
36651;SDS011;53334;51.976;20.144;2023-04-23T06:31:15;9.63;;;6.28;;
36651;SDS011;53334;51.976;20.144;2023-04-23T06:33:48;11.35;;;6.15;;
36651;SDS011;53334;51.976;20.144;2023-04-23T06:36:21;7.85;;;6.78;;
36651;SDS011;53334;51.976;20.144;2023-04-23T06:38:55;7.78;;;6.07;;
36651;SDS011;53334;51.976;20.144;2023-04-23T06:41:28;10.77;;;6.82;;
36651;SDS011;53334;51.976;20.144;2023-04-23T06:44:12;8.00;;;6.68;;
36651;SDS011;53334;51.976;20.144;2023-04-23T06:46:56;7.72;;;6.63;;
36651;SDS011;53334;51.976;20.144;2023-04-23T06:49:30;7.63;;;6.28;;
36651;SDS011;53334;51.976;20.144;2023-04-23T06:52:03;6.88;;;5.90;;
36651;SDS011;53334;51.976;20.144;2023-04-23T06:54:37;7.82;;;6.28;;
36651;SDS011;53334;51.976;20.144;2023-04-23T06:59:44;11.60;;;6.45;;
36651;SDS011;53334;51.976;20.144;2023-04-23T07:02:19;7.40;;;6.10;;
36651;SDS011;53334;51.976;20.144;2023-04-23T07:04:53;12.30;;;6.20;;
36651;SDS011;53334;51.976;20.144;2023-04-23T07:07:27;6.78;;;5.85;;
36651;SDS011;53334;51.976;20.144;2023-04-23T07:10:00;8.73;;;6.68;;
36651;SDS011;53334;51.976;20.144;2023-04-23T07:12:34;6.72;;;5.68;;
36651;SDS011;53334;51.976;20.144;2023-04-23T07:17:43;5.80;;;5.17;;
36651;SDS011;53334;51.976;20.144;2023-04-23T07:20:16;8.05;;;5.70;;
36651;SDS011;53334;51.976;20.144;2023-04-23T07:22:50;7.75;;;6.18;;
36651;SDS011;53334;51.976;20.144;2023-04-23T07:25:24;12.23;;;7.53;;
36651;SDS011;53334;51.976;20.144;2023-04-23T07:27:57;11.60;;;7.43;;
36651;SDS011;53334;51.976;20.144;2023-04-23T07:30:31;20.08;;;10.90;;
36651;SDS011;53334;51.976;20.144;2023-04-23T07:33:05;31.48;;;20.45;;
36651;SDS011;53334;51.976;20.144;2023-04-23T07:35:39;50.72;;;34.28;;
36651;SDS011;53334;51.976;20.144;2023-04-23T07:38:12;68.80;;;51.50;;
36651;SDS011;53334;51.976;20.144;2023-04-23T07:40:45;74.50;;;56.47;;
36651;SDS011;53334;51.976;20.144;2023-04-23T07:45:52;80.53;;;62.65;;
36651;SDS011;53334;51.976;20.144;2023-04-23T07:48:27;73.07;;;56.72;;
36651;SDS011;53334;51.976;20.144;2023-04-23T07:51:00;79.22;;;60.58;;
36651;SDS011;53334;51.976;20.144;2023-04-23T07:53:33;79.53;;;64.10;;
36651;SDS011;53334;51.976;20.144;2023-04-23T07:56:07;83.30;;;66.80;;
36651;SDS011;53334;51.976;20.144;2023-04-23T07:58:41;52.33;;;38.03;;
36651;SDS011;53334;51.976;20.144;2023-04-23T08:01:14;23.95;;;14.05;;
36651;SDS011;53334;51.976;20.144;2023-04-23T08:03:49;14.57;;;10.52;;
36651;SDS011;53334;51.976;20.144;2023-04-23T08:06:22;19.75;;;9.32;;
36651;SDS011;53334;51.976;20.144;2023-04-23T08:08:57;18.50;;;9.00;;
36651;SDS011;53334;51.976;20.144;2023-04-23T08:11:31;12.38;;;8.40;;
36651;SDS011;53334;51.976;20.144;2023-04-23T08:14:04;16.23;;;8.73;;
36651;SDS011;53334;51.976;20.144;2023-04-23T08:16:37;12.25;;;6.75;;
36651;SDS011;53334;51.976;20.144;2023-04-23T08:19:12;8.93;;;7.55;;
36651;SDS011;53334;51.976;20.144;2023-04-23T08:21:45;11.95;;;7.32;;
36651;SDS011;53334;51.976;20.144;2023-04-23T08:24:19;42.58;;;20.13;;
36651;SDS011;53334;51.976;20.144;2023-04-23T08:26:52;77.40;;;32.28;;
36651;SDS011;53334;51.976;20.144;2023-04-23T08:29:26;228.63;;;96.05;;
36651;SDS011;53334;51.976;20.144;2023-04-23T08:31:59;304.23;;;126.50;;
36651;SDS011;53334;51.976;20.144;2023-04-23T08:34:33;497.50;;;221.07;;
36651;SDS011;53334;51.976;20.144;2023-04-23T08:37:07;454.63;;;196.50;;
36651;SDS011;53334;51.976;20.144;2023-04-23T08:39:57;489.85;;;217.95;;
36651;SDS011;53334;51.976;20.144;2023-04-23T08:42:36;484.63;;;210.60;;
36651;SDS011;53334;51.976;20.144;2023-04-23T08:45:13;583.28;;;274.65;;
36651;SDS011;53334;51.976;20.144;2023-04-23T08:47:46;668.65;;;315.23;;
36651;SDS011;53334;51.976;20.144;2023-04-23T08:50:21;699.35;;;332.45;;
36651;SDS011;53334;51.976;20.144;2023-04-23T08:52:55;658.15;;;315.52;;
36651;SDS011;53334;51.976;20.144;2023-04-23T08:55:29;659.78;;;314.88;;
36651;SDS011;53334;51.976;20.144;2023-04-23T08:58:05;579.47;;;266.90;;
36651;SDS011;53334;51.976;20.144;2023-04-23T09:00:38;542.95;;;237.73;;
36651;SDS011;53334;51.976;20.144;2023-04-23T09:03:12;471.00;;;199.50;;
36651;SDS011;53334;51.976;20.144;2023-04-23T09:05:48;445.42;;;185.93;;
36651;SDS011;53334;51.976;20.144;2023-04-23T09:08:23;425.23;;;172.93;;
36651;SDS011;53334;51.976;20.144;2023-04-23T09:10:56;418.35;;;167.65;;
36651;SDS011;53334;51.976;20.144;2023-04-23T09:13:32;416.20;;;169.43;;
36651;SDS011;53334;51.976;20.144;2023-04-23T09:16:06;372.40;;;154.13;;
36651;SDS011;53334;51.976;20.144;2023-04-23T09:18:40;386.45;;;152.07;;
36651;SDS011;53334;51.976;20.144;2023-04-23T09:21:15;350.27;;;139.48;;
36651;SDS011;53334;51.976;20.144;2023-04-23T09:23:49;343.20;;;139.98;;
36651;SDS011;53334;51.976;20.144;2023-04-23T09:26:23;328.60;;;136.63;;
36651;SDS011;53334;51.976;20.144;2023-04-23T09:31:30;277.98;;;114.80;;
36651;SDS011;53334;51.976;20.144;2023-04-23T09:34:03;274.17;;;115.95;;
36651;SDS011;53334;51.976;20.144;2023-04-23T09:36:40;270.08;;;105.97;;
36651;SDS011;53334;51.976;20.144;2023-04-23T09:39:15;240.32;;;103.25;;
36651;SDS011;53334;51.976;20.144;2023-04-23T09:41:50;239.30;;;101.05;;
36651;SDS011;53334;51.976;20.144;2023-04-23T09:44:23;218.15;;;98.40;;
36651;SDS011;53334;51.976;20.144;2023-04-23T09:47:04;224.52;;;95.40;;
36651;SDS011;53334;51.976;20.144;2023-04-23T09:49:46;218.32;;;92.55;;
36651;SDS011;53334;51.976;20.144;2023-04-23T09:52:21;213.43;;;90.00;;
36651;SDS011;53334;51.976;20.144;2023-04-23T09:54:55;185.93;;;84.53;;
36651;SDS011;53334;51.976;20.144;2023-04-23T09:57:30;190.23;;;81.07;;
36651;SDS011;53334;51.976;20.144;2023-04-23T10:00:11;191.40;;;83.60;;
36651;SDS011;53334;51.976;20.144;2023-04-23T10:02:48;191.65;;;83.30;;
36651;SDS011;53334;51.976;20.144;2023-04-23T10:05:24;181.65;;;75.35;;
36651;SDS011;53334;51.976;20.144;2023-04-23T10:08:08;162.32;;;70.05;;
36651;SDS011;53334;51.976;20.144;2023-04-23T10:10:44;158.02;;;70.95;;
36651;SDS011;53334;51.976;20.144;2023-04-23T10:13:36;167.15;;;73.28;;
36651;SDS011;53334;51.976;20.144;2023-04-23T10:16:10;151.63;;;65.85;;
36651;SDS011;53334;51.976;20.144;2023-04-23T10:18:54;142.77;;;63.38;;
36651;SDS011;53334;51.976;20.144;2023-04-23T10:21:31;142.82;;;61.38;;
36651;SDS011;53334;51.976;20.144;2023-04-23T10:24:25;131.82;;;60.25;;
36651;SDS011;53334;51.976;20.144;2023-04-23T10:27:02;130.02;;;55.13;;
36651;SDS011;53334;51.976;20.144;2023-04-23T10:29:36;120.65;;;54.85;;
36651;SDS011;53334;51.976;20.144;2023-04-23T10:32:10;129.18;;;56.08;;
36651;SDS011;53334;51.976;20.144;2023-04-23T10:34:44;129.60;;;54.53;;
36651;SDS011;53334;51.976;20.144;2023-04-23T10:37:17;126.72;;;53.67;;
36651;SDS011;53334;51.976;20.144;2023-04-23T10:39:54;120.40;;;54.65;;
36651;SDS011;53334;51.976;20.144;2023-04-23T10:42:30;119.30;;;53.63;;
36651;SDS011;53334;51.976;20.144;2023-04-23T10:45:08;108.40;;;48.90;;
36651;SDS011;53334;51.976;20.144;2023-04-23T10:47:55;104.20;;;49.28;;
36651;SDS011;53334;51.976;20.144;2023-04-23T10:50:29;110.18;;;48.83;;
36651;SDS011;53334;51.976;20.144;2023-04-23T10:53:17;95.97;;;48.60;;
36651;SDS011;53334;51.976;20.144;2023-04-23T10:56:04;102.68;;;49.30;;
36651;SDS011;53334;51.976;20.144;2023-04-23T10:58:47;112.65;;;50.50;;
36651;SDS011;53334;51.976;20.144;2023-04-23T11:03:56;107.18;;;47.45;;
36651;SDS011;53334;51.976;20.144;2023-04-23T11:06:49;101.88;;;46.17;;
36651;SDS011;53334;51.976;20.144;2023-04-23T11:09:29;103.20;;;47.08;;
36651;SDS011;53334;51.976;20.144;2023-04-23T11:12:09;101.30;;;44.47;;
36651;SDS011;53334;51.976;20.144;2023-04-23T11:14:45;92.07;;;44.25;;
36651;SDS011;53334;51.976;20.144;2023-04-23T11:17:21;95.53;;;43.63;;
36651;SDS011;53334;51.976;20.144;2023-04-23T11:20:06;83.88;;;41.67;;
36651;SDS011;53334;51.976;20.144;2023-04-23T11:22:42;90.10;;;40.22;;
36651;SDS011;53334;51.976;20.144;2023-04-23T11:25:18;82.85;;;38.70;;
36651;SDS011;53334;51.976;20.144;2023-04-23T11:27:54;72.85;;;34.58;;
36651;SDS011;53334;51.976;20.144;2023-04-23T11:30:29;75.80;;;34.83;;
36651;SDS011;53334;51.976;20.144;2023-04-23T11:33:03;67.80;;;31.77;;
36651;SDS011;53334;51.976;20.144;2023-04-23T11:35:37;67.07;;;30.83;;
36651;SDS011;53334;51.976;20.144;2023-04-23T11:38:12;63.58;;;29.73;;
36651;SDS011;53334;51.976;20.144;2023-04-23T11:40:45;62.40;;;29.10;;
36651;SDS011;53334;51.976;20.144;2023-04-23T11:48:26;306.52;;;143.23;;
36651;SDS011;53334;51.976;20.144;2023-04-23T11:50:59;355.55;;;162.38;;
36651;SDS011;53334;51.976;20.144;2023-04-23T11:53:33;341.55;;;148.38;;
36651;SDS011;53334;51.976;20.144;2023-04-23T11:58:42;212.40;;;98.53;;
36651;SDS011;53334;51.976;20.144;2023-04-23T12:01:15;190.20;;;88.43;;
36651;SDS011;53334;51.976;20.144;2023-04-23T12:03:48;159.48;;;75.43;;
36651;SDS011;53334;51.976;20.144;2023-04-23T12:06:22;142.18;;;68.70;;
36651;SDS011;53334;51.976;20.144;2023-04-23T12:08:55;138.02;;;63.35;;
36651;SDS011;53334;51.976;20.144;2023-04-23T12:11:28;127.35;;;60.53;;
36651;SDS011;53334;51.976;20.144;2023-04-23T12:14:03;136.65;;;60.88;;
36651;SDS011;53334;51.976;20.144;2023-04-23T12:16:39;114.40;;;52.92;;
36651;SDS011;53334;51.976;20.144;2023-04-23T12:19:14;102.88;;;47.20;;
36651;SDS011;53334;51.976;20.144;2023-04-23T12:21:50;91.05;;;43.80;;
36651;SDS011;53334;51.976;20.144;2023-04-23T12:24:25;95.85;;;44.80;;
36651;SDS011;53334;51.976;20.144;2023-04-23T12:27:00;81.88;;;41.67;;
36651;SDS011;53334;51.976;20.144;2023-04-23T12:29:35;82.70;;;42.10;;
36651;SDS011;53334;51.976;20.144;2023-04-23T12:32:09;85.95;;;39.75;;
36651;SDS011;53334;51.976;20.144;2023-04-23T12:34:50;82.38;;;40.10;;
36651;SDS011;53334;51.976;20.144;2023-04-23T12:37:24;74.30;;;35.45;;
36651;SDS011;53334;51.976;20.144;2023-04-23T12:39:58;71.85;;;36.38;;
36651;SDS011;53334;51.976;20.144;2023-04-23T12:42:32;73.70;;;36.22;;
36651;SDS011;53334;51.976;20.144;2023-04-23T12:45:09;73.50;;;34.28;;
36651;SDS011;53334;51.976;20.144;2023-04-23T12:47:42;67.80;;;34.30;;
36651;SDS011;53334;51.976;20.144;2023-04-23T12:50:16;77.32;;;32.95;;
36651;SDS011;53334;51.976;20.144;2023-04-23T12:52:49;73.18;;;33.05;;
36651;SDS011;53334;51.976;20.144;2023-04-23T12:55:22;74.82;;;33.92;;
36651;SDS011;53334;51.976;20.144;2023-04-23T12:57:56;69.53;;;34.35;;
36651;SDS011;53334;51.976;20.144;2023-04-23T13:00:31;63.22;;;32.13;;
36651;SDS011;53334;51.976;20.144;2023-04-23T13:03:05;55.00;;;30.63;;
36651;SDS011;53334;51.976;20.144;2023-04-23T13:05:38;61.95;;;30.52;;
36651;SDS011;53334;51.976;20.144;2023-04-23T13:08:11;57.13;;;30.60;;
36651;SDS011;53334;51.976;20.144;2023-04-23T13:10:44;49.40;;;27.95;;
36651;SDS011;53334;51.976;20.144;2023-04-23T13:13:17;54.67;;;29.58;;
36651;SDS011;53334;51.976;20.144;2023-04-23T13:15:52;58.22;;;30.65;;
36651;SDS011;53334;51.976;20.144;2023-04-23T13:18:26;64.70;;;29.60;;
36651;SDS011;53334;51.976;20.144;2023-04-23T13:20:59;55.70;;;24.92;;
36651;SDS011;53334;51.976;20.144;2023-04-23T13:23:32;47.75;;;24.42;;
36651;SDS011;53334;51.976;20.144;2023-04-23T13:26:05;52.10;;;28.55;;
36651;SDS011;53334;51.976;20.144;2023-04-23T13:28:39;56.03;;;25.92;;
36651;SDS011;53334;51.976;20.144;2023-04-23T13:31:13;46.80;;;25.33;;
36651;SDS011;53334;51.976;20.144;2023-04-23T13:33:47;54.45;;;24.70;;
36651;SDS011;53334;51.976;20.144;2023-04-23T13:36:20;39.42;;;25.33;;
36651;SDS011;53334;51.976;20.144;2023-04-23T13:38:53;36.55;;;23.50;;
36651;SDS011;53334;51.976;20.144;2023-04-23T13:41:26;46.42;;;25.73;;
36651;SDS011;53334;51.976;20.144;2023-04-23T13:44:00;41.00;;;22.67;;
36651;SDS011;53334;51.976;20.144;2023-04-23T13:46:34;43.88;;;23.58;;
36651;SDS011;53334;51.976;20.144;2023-04-23T13:49:08;43.60;;;22.50;;
36651;SDS011;53334;51.976;20.144;2023-04-23T13:51:41;41.40;;;22.05;;
36651;SDS011;53334;51.976;20.144;2023-04-23T13:54:14;38.20;;;21.92;;
36651;SDS011;53334;51.976;20.144;2023-04-23T13:56:47;40.90;;;22.55;;
36651;SDS011;53334;51.976;20.144;2023-04-23T13:59:20;32.42;;;20.38;;
36651;SDS011;53334;51.976;20.144;2023-04-23T14:01:55;34.17;;;20.23;;
36651;SDS011;53334;51.976;20.144;2023-04-23T14:04:29;32.45;;;19.58;;
36651;SDS011;53334;51.976;20.144;2023-04-23T14:07:02;37.40;;;19.48;;
36651;SDS011;53334;51.976;20.144;2023-04-23T14:09:36;35.15;;;19.75;;
36651;SDS011;53334;51.976;20.144;2023-04-23T14:12:10;31.70;;;18.95;;
36651;SDS011;53334;51.976;20.144;2023-04-23T14:14:43;31.58;;;20.25;;
36651;SDS011;53334;51.976;20.144;2023-04-23T14:17:18;30.65;;;18.77;;
36651;SDS011;53334;51.976;20.144;2023-04-23T14:19:51;34.88;;;19.63;;
36651;SDS011;53334;51.976;20.144;2023-04-23T14:22:25;28.17;;;18.55;;
36651;SDS011;53334;51.976;20.144;2023-04-23T14:25:00;27.52;;;18.00;;
36651;SDS011;53334;51.976;20.144;2023-04-23T14:27:38;29.88;;;17.35;;
36651;SDS011;53334;51.976;20.144;2023-04-23T14:30:13;23.70;;;17.35;;
36651;SDS011;53334;51.976;20.144;2023-04-23T14:32:49;37.25;;;18.90;;
36651;SDS011;53334;51.976;20.144;2023-04-23T14:35:24;47.80;;;18.13;;
36651;SDS011;53334;51.976;20.144;2023-04-23T14:38:13;26.45;;;17.05;;
36651;SDS011;53334;51.976;20.144;2023-04-23T14:40:46;27.27;;;16.65;;
36651;SDS011;53334;51.976;20.144;2023-04-23T14:43:20;25.38;;;17.63;;
36651;SDS011;53334;51.976;20.144;2023-04-23T14:45:53;33.85;;;17.15;;
36651;SDS011;53334;51.976;20.144;2023-04-23T14:48:28;26.17;;;14.35;;
36651;SDS011;53334;51.976;20.144;2023-04-23T14:51:02;28.50;;;14.38;;
36651;SDS011;53334;51.976;20.144;2023-04-23T14:53:36;21.30;;;13.73;;
36651;SDS011;53334;51.976;20.144;2023-04-23T14:56:09;24.08;;;14.98;;
36651;SDS011;53334;51.976;20.144;2023-04-23T14:58:42;21.08;;;14.45;;
36651;SDS011;53334;51.976;20.144;2023-04-23T15:01:15;27.02;;;14.18;;
36651;SDS011;53334;51.976;20.144;2023-04-23T15:03:50;25.40;;;15.15;;
36651;SDS011;53334;51.976;20.144;2023-04-23T15:06:24;22.40;;;14.43;;
36651;SDS011;53334;51.976;20.144;2023-04-23T15:08:57;27.42;;;14.95;;
36651;SDS011;53334;51.976;20.144;2023-04-23T15:11:31;22.33;;;15.35;;
36651;SDS011;53334;51.976;20.144;2023-04-23T15:14:05;25.40;;;13.90;;
36651;SDS011;53334;51.976;20.144;2023-04-23T15:16:40;25.00;;;14.98;;
36651;SDS011;53334;51.976;20.144;2023-04-23T15:19:21;26.98;;;14.32;;
36651;SDS011;53334;51.976;20.144;2023-04-23T15:21:55;20.17;;;13.75;;
36651;SDS011;53334;51.976;20.144;2023-04-23T15:24:28;26.15;;;14.10;;
36651;SDS011;53334;51.976;20.144;2023-04-23T15:27:01;21.30;;;13.30;;
36651;SDS011;53334;51.976;20.144;2023-04-23T15:29:35;19.08;;;13.77;;
36651;SDS011;53334;51.976;20.144;2023-04-23T15:32:09;21.08;;;13.57;;
36651;SDS011;53334;51.976;20.144;2023-04-23T15:34:43;30.48;;;15.40;;
36651;SDS011;53334;51.976;20.144;2023-04-23T15:37:17;20.40;;;15.05;;